createdAt,value
2017-10-09T00:02:07.322Z,4.00
2017-10-09T00:04:36.184Z,3.90
2017-10-09T00:07:04.572Z,4.00
2017-10-09T00:09:33.446Z,4.67
2017-10-09T00:12:02.236Z,3.97
2017-10-09T00:14:30.364Z,4.67
2017-10-09T00:16:58.486Z,5.00
2017-10-09T00:19:26.608Z,4.87
2017-10-09T00:21:55.468Z,4.93
2017-10-09T00:24:24.328Z,4.90
2017-10-09T00:26:52.449Z,4.73
2017-10-09T00:29:20.550Z,3.40
2017-10-09T00:31:48.624Z,3.43
2017-10-09T00:34:16.746Z,4.13
2017-10-09T00:36:44.826Z,3.70
2017-10-09T00:39:13.672Z,3.87
2017-10-09T00:41:41.781Z,3.20
2017-10-09T00:44:09.861Z,3.20
2017-10-09T00:46:38.735Z,2.93
2017-10-09T00:49:06.816Z,3.70
2017-10-09T00:51:35.689Z,3.90
2017-10-09T00:54:03.765Z,3.10
2017-10-09T00:56:31.863Z,3.50
2017-10-09T00:59:00.726Z,3.87
2017-10-09T01:01:28.900Z,4.10
2017-10-09T01:03:57.235Z,4.27
2017-10-09T01:06:25.707Z,4.83
2017-10-09T01:08:54.580Z,3.93
2017-10-09T01:11:22.798Z,4.00
2017-10-09T01:13:50.867Z,3.80
2017-10-09T01:16:18.955Z,3.37
2017-10-09T01:18:47.108Z,3.03
2017-10-09T01:21:15.193Z,3.67
2017-10-09T01:23:43.287Z,2.83
2017-10-09T01:26:12.149Z,3.10
2017-10-09T01:28:40.247Z,3.70
2017-10-09T01:31:09.093Z,4.53
2017-10-09T01:33:37.180Z,3.57
2017-10-09T01:36:05.271Z,3.73
2017-10-09T01:38:33.363Z,3.00
2017-10-09T01:41:02.224Z,3.27
2017-10-09T01:43:30.308Z,3.57
2017-10-09T01:45:58.770Z,3.20
2017-10-09T01:48:26.846Z,3.80
2017-10-09T01:50:54.935Z,3.40
2017-10-09T01:53:23.011Z,3.60
2017-10-09T01:55:52.140Z,4.17
2017-10-09T01:58:20.252Z,3.47
2017-10-09T02:00:48.339Z,3.63
2017-10-09T02:03:16.443Z,3.90
2017-10-09T02:05:44.575Z,3.70
2017-10-09T02:08:13.087Z,3.50
2017-10-09T02:10:41.639Z,4.03
2017-10-09T02:13:10.501Z,4.03
2017-10-09T02:15:38.599Z,4.60
2017-10-09T02:18:06.694Z,4.57
2017-10-09T02:20:35.711Z,4.10
2017-10-09T02:23:03.818Z,3.47
2017-10-09T02:25:31.954Z,3.57
2017-10-09T02:28:00.057Z,3.73
2017-10-09T02:30:28.127Z,4.20
2017-10-09T02:32:57.112Z,3.53
2017-10-09T02:35:25.229Z,3.63
2017-10-09T02:37:54.231Z,3.67
2017-10-09T02:40:22.295Z,5.20
2017-10-09T02:42:50.419Z,5.63
2017-10-09T02:45:18.532Z,4.40
2017-10-09T02:47:46.612Z,5.50
2017-10-09T02:50:14.701Z,5.00
2017-10-09T02:52:43.542Z,4.80
2017-10-09T02:55:11.634Z,3.90
2017-10-09T02:57:40.635Z,4.97
2017-10-09T03:00:08.708Z,5.13
2017-10-09T03:02:36.833Z,5.67
2017-10-09T03:05:05.675Z,5.77
2017-10-09T03:07:33.772Z,6.13
2017-10-09T03:10:01.884Z,5.50
2017-10-09T03:12:29.988Z,6.57
2017-10-09T03:14:58.776Z,6.00
2017-10-09T03:17:27.066Z,5.17
2017-10-09T03:19:55.156Z,6.30
2017-10-09T03:22:25.528Z,6.70
2017-10-09T03:28:10.903Z,5.73
2017-10-09T03:30:38.994Z,6.13
2017-10-09T03:33:07.087Z,5.77
2017-10-09T03:35:35.195Z,6.17
2017-10-09T03:38:04.033Z,6.73
2017-10-09T03:40:32.896Z,6.93
2017-10-09T03:43:00.994Z,5.97
2017-10-09T03:45:29.077Z,7.37
2017-10-09T03:47:57.157Z,7.03
2017-10-09T03:50:25.259Z,6.43
2017-10-09T03:52:53.337Z,6.30
2017-10-09T03:55:22.196Z,7.73
2017-10-09T03:57:50.311Z,7.73
2017-10-09T04:00:19.153Z,7.37
2017-10-09T04:02:47.275Z,7.57
2017-10-09T04:05:16.113Z,8.93
2017-10-09T04:07:44.248Z,7.70
2017-10-09T04:10:12.349Z,6.17
2017-10-09T04:12:40.433Z,6.90
2017-10-09T04:15:08.561Z,7.23
2017-10-09T04:17:36.638Z,7.03
2017-10-09T04:20:04.790Z,6.57
2017-10-09T04:22:33.736Z,7.60
2017-10-09T04:25:01.819Z,6.67
2017-10-09T04:27:29.923Z,7.60
2017-10-09T04:29:58.022Z,6.70
2017-10-09T04:32:26.240Z,7.43
2017-10-09T04:34:54.350Z,8.17
2017-10-09T04:37:23.238Z,8.13
2017-10-09T04:39:52.087Z,10.50
2017-10-09T04:42:20.163Z,9.13
2017-10-09T04:44:48.276Z,10.33
2017-10-09T04:47:16.351Z,10.10
2017-10-09T04:49:45.239Z,10.30
2017-10-09T04:52:13.342Z,8.50
2017-10-09T04:54:41.432Z,9.30
2017-10-09T04:57:09.564Z,10.47
2017-10-09T04:59:38.439Z,10.23
2017-10-09T05:02:06.551Z,10.93
2017-10-09T05:04:34.635Z,10.77
2017-10-09T05:07:02.712Z,10.27
2017-10-09T05:09:30.827Z,12.37
2017-10-09T05:11:58.931Z,12.43
2017-10-09T05:14:27.027Z,12.63
2017-10-09T05:16:55.103Z,12.27
2017-10-09T05:19:23.211Z,13.53
2017-10-09T05:21:52.245Z,12.27
2017-10-09T05:24:20.335Z,10.87
2017-10-09T05:26:48.702Z,11.37
2017-10-09T05:29:16.792Z,11.73
2017-10-09T05:31:44.891Z,9.80
2017-10-09T05:34:14.106Z,11.57
2017-10-09T05:36:42.966Z,12.20
2017-10-09T05:39:11.058Z,13.10
2017-10-09T05:41:39.162Z,13.63
2017-10-09T05:44:07.252Z,13.30
2017-10-09T05:46:35.381Z,13.90
2017-10-09T05:49:04.072Z,12.90
2017-10-09T05:51:32.267Z,12.47
2017-10-09T05:54:00.344Z,13.30
2017-10-09T05:56:28.479Z,13.60
2017-10-09T05:58:57.579Z,13.90
2017-10-09T06:01:25.669Z,13.00
2017-10-09T06:03:54.815Z,14.17
2017-10-09T06:06:23.228Z,13.10
2017-10-09T06:08:51.860Z,14.67
2017-10-09T06:11:19.943Z,15.80
2017-10-09T06:13:49.112Z,14.10
2017-10-09T06:16:17.209Z,16.80
2017-10-09T06:18:45.344Z,17.00
2017-10-09T06:21:14.409Z,14.73
2017-10-09T06:23:42.503Z,16.27
2017-10-09T06:26:10.603Z,16.03
2017-10-09T06:28:38.911Z,17.87
2017-10-09T06:31:07.131Z,16.80
2017-10-09T06:33:35.276Z,16.73
2017-10-09T06:36:03.386Z,18.47
2017-10-09T06:38:31.513Z,18.17
2017-10-09T06:41:00.500Z,19.13
2017-10-09T06:43:29.609Z,18.20
2017-10-09T06:45:57.767Z,19.60
2017-10-09T06:48:25.892Z,20.30
2017-10-09T06:50:54.022Z,21.10
2017-10-09T06:53:22.128Z,20.03
2017-10-09T06:55:50.282Z,19.80
2017-10-09T06:58:18.492Z,20.00
2017-10-09T07:00:47.364Z,20.70
2017-10-09T07:03:15.455Z,20.50
2017-10-09T07:05:43.589Z,19.37
2017-10-09T07:08:12.019Z,20.23
2017-10-09T07:10:40.148Z,20.50
2017-10-09T07:13:08.260Z,20.30
2017-10-09T07:15:37.144Z,21.43
2017-10-09T07:18:05.999Z,20.80
2017-10-09T07:20:34.083Z,21.10
2017-10-09T07:23:02.391Z,21.63
2017-10-09T07:25:30.943Z,21.53
2017-10-09T07:27:59.099Z,21.03
2017-10-09T07:30:27.828Z,21.70
2017-10-09T07:32:58.083Z,20.87
2017-10-09T07:35:26.202Z,21.00
2017-10-09T07:37:54.369Z,20.97
2017-10-09T07:40:22.483Z,22.80
2017-10-09T07:42:50.592Z,21.03
2017-10-09T07:45:18.672Z,22.13
2017-10-09T07:47:47.358Z,22.17
2017-10-09T07:50:15.483Z,21.67
2017-10-09T07:52:44.575Z,22.63
2017-10-09T07:55:12.704Z,22.60
2017-10-09T07:57:40.803Z,22.23
2017-10-09T08:00:09.898Z,22.17
2017-10-09T08:02:38.236Z,22.00
2017-10-09T08:05:06.342Z,22.50
2017-10-09T08:07:34.923Z,20.47
2017-10-09T08:10:03.405Z,22.57
2017-10-09T08:12:32.475Z,21.70
2017-10-09T08:15:00.572Z,21.33
2017-10-09T08:17:28.671Z,23.80
2017-10-09T08:19:56.824Z,24.30
2017-10-09T08:22:25.732Z,23.77
2017-10-09T08:24:55.630Z,21.93
2017-10-09T08:27:23.792Z,22.77
2017-10-09T08:29:52.672Z,22.57
2017-10-09T08:32:21.014Z,21.63
2017-10-09T08:34:49.150Z,19.10
2017-10-09T08:37:18.962Z,17.03
2017-10-09T08:39:48.423Z,16.57
2017-10-09T08:42:16.551Z,18.90
2017-10-09T08:44:44.681Z,18.77
2017-10-09T08:47:12.788Z,19.13
2017-10-09T08:49:42.011Z,19.20
2017-10-09T08:52:10.503Z,19.87
2017-10-09T08:54:38.641Z,20.37
2017-10-09T08:57:08.539Z,21.83
2017-10-09T08:59:36.687Z,18.13
2017-10-09T09:02:04.846Z,17.70
2017-10-09T09:04:32.970Z,16.07
2017-10-09T09:07:01.076Z,14.53
2017-10-09T09:09:29.204Z,14.37
2017-10-09T09:11:57.372Z,14.43
2017-10-09T09:14:26.410Z,15.20
2017-10-09T09:16:54.538Z,14.20
2017-10-09T09:19:22.741Z,16.47
2017-10-09T09:21:51.663Z,15.73
2017-10-09T09:24:19.780Z,15.43
2017-10-09T09:26:49.002Z,14.03
2017-10-09T09:29:17.868Z,13.30
2017-10-09T09:31:46.204Z,13.77
2017-10-09T09:34:14.362Z,13.73
2017-10-09T09:36:42.473Z,14.53
2017-10-09T09:39:10.578Z,16.60
2017-10-09T09:41:38.660Z,15.50
2017-10-09T09:44:07.535Z,17.57
2017-10-09T09:46:35.616Z,16.40
2017-10-09T09:49:04.603Z,17.90
2017-10-09T09:51:32.739Z,17.27
2017-10-09T09:54:01.235Z,18.17
2017-10-09T09:56:30.531Z,17.80
2017-10-09T09:58:58.642Z,17.50
2017-10-09T10:01:28.441Z,17.53
2017-10-09T10:03:57.331Z,19.03
2017-10-09T10:06:25.575Z,18.57
2017-10-09T10:08:53.743Z,19.07
2017-10-09T10:11:21.916Z,21.13
2017-10-09T10:13:50.016Z,19.80
2017-10-09T10:16:18.292Z,18.90
2017-10-09T10:18:46.473Z,20.83
2017-10-09T10:21:14.555Z,21.73
2017-10-09T10:23:43.684Z,22.13
2017-10-09T10:26:12.192Z,22.10
2017-10-09T10:28:40.296Z,23.43
2017-10-09T10:31:08.391Z,21.40
2017-10-09T10:33:37.275Z,23.63
2017-10-09T10:36:05.712Z,24.07
2017-10-09T10:38:33.917Z,24.00
2017-10-09T10:41:02.087Z,26.13
2017-10-09T10:43:30.177Z,23.33
2017-10-09T10:45:58.284Z,25.67
2017-10-09T10:48:26.492Z,27.00
2017-10-09T10:50:54.604Z,25.37
2017-10-09T10:53:25.395Z,28.00
2017-10-09T10:55:53.515Z,29.63
2017-10-09T10:58:21.862Z,29.10
2017-10-09T11:00:49.965Z,28.60
2017-10-09T11:03:18.127Z,29.30
2017-10-09T11:05:46.343Z,27.10
2017-10-09T11:08:14.443Z,27.33
2017-10-09T11:10:42.532Z,27.90
2017-10-09T11:13:10.632Z,29.57
2017-10-09T11:15:38.735Z,29.80
2017-10-09T11:18:06.832Z,27.37
2017-10-09T11:20:34.954Z,31.80
2017-10-09T11:23:03.101Z,29.80
2017-10-09T11:25:32.553Z,29.37
2017-10-09T11:28:00.647Z,32.30
2017-10-09T11:30:28.749Z,31.10
2017-10-09T11:32:56.851Z,33.33
2017-10-09T11:35:24.951Z,31.13
2017-10-09T11:37:53.052Z,31.70
2017-10-09T11:40:21.228Z,32.00
2017-10-09T11:42:49.427Z,30.70
2017-10-09T11:45:17.651Z,28.40
2017-10-09T11:47:45.784Z,31.13
2017-10-09T11:50:14.676Z,31.10
2017-10-09T11:52:43.812Z,33.57
2017-10-09T11:55:12.015Z,33.43
2017-10-09T11:57:40.124Z,33.70
2017-10-09T12:00:08.978Z,33.13
2017-10-09T12:02:37.935Z,32.80
2017-10-09T12:05:06.175Z,33.17
2017-10-09T12:07:35.113Z,30.20
2017-10-09T12:10:03.225Z,34.00
2017-10-09T12:12:31.366Z,32.90
2017-10-09T12:14:59.494Z,34.00
2017-10-09T12:17:28.354Z,35.93
2017-10-09T12:19:56.613Z,34.30
2017-10-09T12:22:25.269Z,37.77
2017-10-09T12:24:53.348Z,36.30
2017-10-09T12:27:21.482Z,35.20
2017-10-09T12:29:50.820Z,36.57
2017-10-09T12:32:19.260Z,33.70
2017-10-09T12:34:48.604Z,36.27
2017-10-09T12:37:16.751Z,34.97
2017-10-09T12:39:45.827Z,34.40
2017-10-09T12:42:13.940Z,33.53
2017-10-09T12:44:42.062Z,33.43
2017-10-09T12:47:11.252Z,31.60
2017-10-09T12:49:39.418Z,31.50
2017-10-09T12:52:07.600Z,32.70
2017-10-09T12:54:35.708Z,33.20
2017-10-09T12:57:04.148Z,32.37
2017-10-09T12:59:32.458Z,32.40
2017-10-09T13:02:01.401Z,33.47
2017-10-09T13:04:29.687Z,32.83
2017-10-09T13:06:57.863Z,33.27
2017-10-09T13:09:26.029Z,34.60
2017-10-09T13:11:54.665Z,33.57
2017-10-09T13:14:22.996Z,32.77
2017-10-09T13:16:51.126Z,31.57
2017-10-09T13:19:19.216Z,30.23
2017-10-09T13:21:47.431Z,31.33
2017-10-09T13:24:15.569Z,32.37
2017-10-09T13:26:43.756Z,31.97
2017-10-09T13:29:11.880Z,34.20
2017-10-09T13:31:40.761Z,32.87
2017-10-09T13:34:08.864Z,30.90
2017-10-09T13:36:36.957Z,29.80
2017-10-09T13:39:05.111Z,29.47
2017-10-09T13:41:33.277Z,31.80
2017-10-09T13:44:01.707Z,32.97
2017-10-09T13:46:30.787Z,29.47
2017-10-09T13:49:00.031Z,30.30
2017-10-09T13:51:28.500Z,30.47
2017-10-09T13:53:57.011Z,29.23
2017-10-09T13:56:25.327Z,28.10
2017-10-09T13:58:53.606Z,29.10
2017-10-09T14:01:21.722Z,31.73
2017-10-09T14:03:49.846Z,33.20
2017-10-09T14:06:18.896Z,31.60
2017-10-09T14:08:47.782Z,33.17
2017-10-09T14:11:16.399Z,33.10
2017-10-09T14:13:44.796Z,34.00
2017-10-09T14:16:13.848Z,33.00
2017-10-09T14:18:42.735Z,32.23
2017-10-09T14:21:13.848Z,32.80
2017-10-09T14:23:41.967Z,32.80
2017-10-09T14:26:10.080Z,32.70
2017-10-09T14:28:38.231Z,34.43
2017-10-09T14:31:07.419Z,32.30
2017-10-09T14:41:00.860Z,35.73
2017-10-09T14:43:28.984Z,33.00
2017-10-09T14:45:57.840Z,33.30
2017-10-09T14:48:25.932Z,34.50
2017-10-09T14:50:54.098Z,33.23
2017-10-09T14:53:22.946Z,32.67
2017-10-09T14:55:51.100Z,35.43
2017-10-09T14:58:19.259Z,31.87
2017-10-09T15:00:48.106Z,34.67
2017-10-09T15:03:16.225Z,32.87
2017-10-09T15:05:45.102Z,32.97
2017-10-09T15:08:13.235Z,33.60
2017-10-09T15:10:41.382Z,34.20
2017-10-09T15:13:09.496Z,31.57
2017-10-09T15:15:37.616Z,31.67
2017-10-09T15:18:06.775Z,31.10
2017-10-09T15:20:34.896Z,33.67
2017-10-09T15:23:02.994Z,31.30
2017-10-09T15:25:31.113Z,33.53
2017-10-09T15:28:00.025Z,32.00
2017-10-09T15:30:28.113Z,29.50
2017-10-09T15:32:56.208Z,31.40
2017-10-09T15:35:24.312Z,30.30
2017-10-09T15:37:53.185Z,31.97
2017-10-09T15:40:21.283Z,30.83
2017-10-09T15:42:50.164Z,31.53
2017-10-09T15:45:19.216Z,31.13
2017-10-09T15:47:48.679Z,29.67
2017-10-09T15:50:16.796Z,32.57
2017-10-09T15:52:44.917Z,30.70
2017-10-09T15:55:13.856Z,30.27
2017-10-09T15:57:42.207Z,29.93
2017-10-09T16:00:10.384Z,31.00
2017-10-09T16:02:38.483Z,29.30
2017-10-09T16:05:06.610Z,28.80
2017-10-09T16:07:34.770Z,29.57
2017-10-09T16:10:02.889Z,30.07
2017-10-09T16:12:30.990Z,29.47
2017-10-09T16:14:59.093Z,30.03
2017-10-09T16:17:28.028Z,30.30
2017-10-09T16:19:56.148Z,30.80
2017-10-09T16:22:25.265Z,30.10
2017-10-09T16:24:54.148Z,30.80
2017-10-09T16:27:23.116Z,31.03
2017-10-09T16:29:51.214Z,30.90
2017-10-09T16:32:19.352Z,30.83
2017-10-09T16:34:47.462Z,31.03
2017-10-09T16:37:16.330Z,30.07
2017-10-09T16:39:44.431Z,29.33
2017-10-09T16:42:13.331Z,28.73
2017-10-09T16:44:41.444Z,29.37
2017-10-09T16:47:09.542Z,29.77
2017-10-09T16:49:37.640Z,29.00
2017-10-09T16:52:06.405Z,31.23
2017-10-09T16:54:34.695Z,31.40
2017-10-09T16:57:02.792Z,30.00
2017-10-09T16:59:30.923Z,31.70
2017-10-09T17:01:59.030Z,27.90
2017-10-09T17:04:27.140Z,30.53
2017-10-09T17:06:55.263Z,31.10
2017-10-09T17:09:24.124Z,39.00
2017-10-09T17:11:53.173Z,35.80
2017-10-09T17:14:21.279Z,32.00
2017-10-09T17:16:49.371Z,33.43
2017-10-09T17:19:17.538Z,32.00
2017-10-09T17:21:45.652Z,30.57
2017-10-09T17:24:14.077Z,29.77
2017-10-09T17:26:43.336Z,30.67
2017-10-09T17:29:11.443Z,31.60
2017-10-09T17:31:39.541Z,29.10
2017-10-09T17:34:07.651Z,29.93
2017-10-09T17:36:35.793Z,31.30
2017-10-09T17:39:04.051Z,30.37
2017-10-09T17:41:32.201Z,31.07
2017-10-09T17:44:00.292Z,32.70
2017-10-09T17:46:29.516Z,33.10
2017-10-09T17:48:57.637Z,32.00
2017-10-09T17:51:26.134Z,31.43
2017-10-09T17:53:55.381Z,31.37
2017-10-09T17:56:23.549Z,30.70
2017-10-09T17:58:51.808Z,29.10
2017-10-09T18:01:19.961Z,30.23
2017-10-09T18:03:48.106Z,32.63
2017-10-09T18:06:17.314Z,31.23
2017-10-09T18:08:46.238Z,30.77
2017-10-09T18:11:14.358Z,30.53
2017-10-09T18:13:43.573Z,30.20
2017-10-09T18:16:11.706Z,31.67
2017-10-09T18:18:39.986Z,30.50
2017-10-09T18:21:08.885Z,29.30
2017-10-09T18:23:38.721Z,31.27
2017-10-09T18:26:06.852Z,29.97
2017-10-09T18:28:34.966Z,31.67
2017-10-09T18:31:03.106Z,29.97
2017-10-09T18:33:31.963Z,27.90
2017-10-09T18:36:00.083Z,30.80
2017-10-09T18:38:28.201Z,31.80
2017-10-09T18:40:56.304Z,31.07
2017-10-09T18:43:24.716Z,31.30
2017-10-09T18:45:53.618Z,29.40
2017-10-09T18:48:25.212Z,28.60
2017-10-09T18:50:53.794Z,30.10
2017-10-09T18:53:21.896Z,29.83
2017-10-09T18:55:49.995Z,28.90
2017-10-09T18:58:18.100Z,30.80
2017-10-09T19:00:46.436Z,29.60
2017-10-09T19:03:14.574Z,29.90
2017-10-09T19:05:42.692Z,30.60
2017-10-09T19:08:10.815Z,29.87
2017-10-09T19:10:38.974Z,33.10
2017-10-09T19:13:07.082Z,30.83
2017-10-09T19:15:35.978Z,30.90
2017-10-09T19:18:04.893Z,32.10
2017-10-09T19:20:33.020Z,32.63
2017-10-09T19:23:01.222Z,33.17
2017-10-09T19:25:29.657Z,36.00
2017-10-09T19:27:58.598Z,34.87
2017-10-09T19:30:27.743Z,35.67
2017-10-09T19:32:56.152Z,38.23
2017-10-09T19:35:25.216Z,30.60
2017-10-09T19:37:53.455Z,27.93
2017-10-09T19:40:21.735Z,28.97
2017-10-09T19:42:50.036Z,28.50
2017-10-09T19:45:18.217Z,28.87
2017-10-09T19:47:46.383Z,28.73
2017-10-09T19:50:14.484Z,30.47
2017-10-09T19:52:42.613Z,27.60
2017-10-09T19:55:11.619Z,28.27
2017-10-09T19:57:39.743Z,28.90
2017-10-09T20:00:08.661Z,28.50
2017-10-09T20:02:36.823Z,29.93
2017-10-09T20:05:05.780Z,26.93
2017-10-09T20:07:33.895Z,29.70
2017-10-09T20:10:02.794Z,27.40
2017-10-09T20:12:30.968Z,28.17
2017-10-09T20:14:59.145Z,28.90
2017-10-09T20:17:27.263Z,26.43
2017-10-09T20:19:56.585Z,25.87
2017-10-09T20:22:24.703Z,27.10
2017-10-09T20:24:52.852Z,26.97
2017-10-09T20:27:21.880Z,29.60
2017-10-09T20:29:50.149Z,27.80
2017-10-09T20:32:18.278Z,28.43
2017-10-09T20:34:46.431Z,27.70
2017-10-09T20:37:15.276Z,29.30
2017-10-09T20:39:44.253Z,28.70
2017-10-09T20:42:12.381Z,29.63
2017-10-09T20:44:40.476Z,29.17
2017-10-09T20:47:08.609Z,28.50
2017-10-09T20:49:36.739Z,29.90
2017-10-09T20:52:05.727Z,31.40
2017-10-09T20:54:34.341Z,29.60
2017-10-09T20:57:02.498Z,27.90
2017-10-09T20:59:31.514Z,29.13
2017-10-09T21:01:59.686Z,30.27
2017-10-09T21:04:27.785Z,29.70
2017-10-09T21:06:55.896Z,30.07
2017-10-09T21:09:23.997Z,28.03
2017-10-09T21:11:52.808Z,27.40
2017-10-09T21:14:21.160Z,27.27
2017-10-09T21:16:49.356Z,26.70
2017-10-09T21:19:17.498Z,30.00
2017-10-09T21:21:45.604Z,26.90
2017-10-09T21:24:13.772Z,28.70
2017-10-09T21:26:41.869Z,28.83
2017-10-09T21:29:09.997Z,29.27
2017-10-09T21:31:38.119Z,27.50
2017-10-09T21:34:06.242Z,29.77
2017-10-09T21:36:34.339Z,27.90
2017-10-09T21:39:03.192Z,29.30
2017-10-09T21:41:32.956Z,28.60
2017-10-09T21:44:01.055Z,29.80
2017-10-09T21:46:29.169Z,26.30
2017-10-09T21:48:57.261Z,28.43
2017-10-09T21:51:25.428Z,26.83
2017-10-09T21:53:54.456Z,29.13
2017-10-09T21:56:22.566Z,27.03
2017-10-09T21:58:50.820Z,27.03
2017-10-09T22:01:19.785Z,30.13
2017-10-09T22:03:47.903Z,27.80
2017-10-09T22:06:16.056Z,29.40
2017-10-09T22:08:44.668Z,30.60
2017-10-09T22:11:12.864Z,28.40
2017-10-09T22:13:42.081Z,28.43
2017-10-09T22:16:10.197Z,29.00
2017-10-09T22:18:39.080Z,27.50
2017-10-09T22:21:07.372Z,25.57
2017-10-09T22:23:36.229Z,25.73
2017-10-09T22:26:04.391Z,28.50
2017-10-09T22:28:33.099Z,27.57
2017-10-09T22:31:01.380Z,27.90
2017-10-09T22:33:29.507Z,27.10
2017-10-09T22:35:57.918Z,28.23
2017-10-09T22:38:26.148Z,27.60
2017-10-09T22:40:54.259Z,28.93
2017-10-09T22:43:22.861Z,28.87
2017-10-09T22:45:51.030Z,29.40
2017-10-09T22:48:19.161Z,27.00
2017-10-09T22:50:47.485Z,27.10
2017-10-09T22:53:16.092Z,29.03
2017-10-09T22:55:45.007Z,25.20
2017-10-09T22:58:13.160Z,28.30
2017-10-09T23:00:42.288Z,29.73
2017-10-09T23:03:10.821Z,27.87
2017-10-09T23:05:38.947Z,28.80
2017-10-09T23:08:07.188Z,28.03
2017-10-09T23:10:37.372Z,28.27
2017-10-09T23:13:06.184Z,27.07
2017-10-09T23:15:34.899Z,28.67
2017-10-09T23:18:03.001Z,28.40
2017-10-09T23:20:31.101Z,28.20
2017-10-09T23:23:00.077Z,29.30
2017-10-09T23:25:28.400Z,27.43
2017-10-09T23:27:57.288Z,26.50
2017-10-09T23:30:25.404Z,26.80
2017-10-09T23:32:53.508Z,28.87
2017-10-09T23:35:21.794Z,28.53
2017-10-09T23:37:50.828Z,26.83
2017-10-09T23:40:18.973Z,26.33
2017-10-09T23:42:47.125Z,25.83
2017-10-09T23:45:15.261Z,27.20
2017-10-09T23:47:43.388Z,25.77
2017-10-09T23:50:11.463Z,27.43
2017-10-09T23:52:39.587Z,26.07
2017-10-09T23:55:07.683Z,27.33
2017-10-09T23:57:35.776Z,26.37
